Time;durP1;ratioP1;P1;durP2;ratioP2;P2;SDS_P1;SDS_P2;PMS_P1;PMS_P2;Temp;Humidity;BMP_temperature;BMP_pressure;BME280_temperature;BME280_humidity;BME280_pressure;Samples;Min_cycle;Max_cycle;Signal;HPM_P1;HPM_P2
2021/01/15 00:00:12;;;;;;;6.97;3.97;;;;;;;-4.52;89.15;92572.66;5016169;28;20101;-94
2021/01/15 00:02:38;;;;;;;2.65;1.88;;;;;;;-4.33;91.93;92555.97;5025400;28;20054;-94
2021/01/15 00:05:06;;;;;;;4.30;2.53;;;;;;;-4.05;88.74;92598.69;5018707;28;20534;-93
2021/01/15 00:07:33;;;;;;;1.13;1.02;;;;;;;-3.92;88.39;92610.94;5016775;28;20054;-95
2021/01/15 00:10:02;;;;;;;1.33;0.90;;;;;;;-4.67;89.08;92538.88;5031449;28;20096;-96
2021/01/15 00:12:28;;;;;;;2.97;1.70;;;;;;;-3.98;89.77;92661.66;5032822;28;20049;-94
2021/01/15 00:14:55;;;;;;;1.23;1.08;;;;;;;-4.22;90.09;92602.69;5034226;28;20053;-96
2021/01/15 00:17:23;;;;;;;0.77;0.50;;;;;;;-4.41;89.68;92583.47;5032578;28;20096;-94
2021/01/15 00:19:50;;;;;;;1.27;0.75;;;;;;;-4.22;90.51;92592.66;5014988;28;20057;-95
2021/01/15 00:22:31;;;;;;;1.45;1.15;;;;;;;-4.17;92.06;92588.03;5031053;28;20109;-95
2021/01/15 00:24:57;;;;;;;3.15;1.23;;;;;;;-4.31;89.64;92569.97;5030165;28;20049;-95
2021/01/15 00:27:26;;;;;;;3.92;3.30;;;;;;;-4.68;91.16;92543.09;5027895;28;20026;-95
2021/01/15 00:29:53;;;;;;;7.88;4.85;;;;;;;-4.78;90.23;92550.63;5007701;28;20105;-96
2021/01/15 00:32:19;;;;;;;1.85;0.98;;;;;;;-4.13;91.74;92608.63;5027511;28;20133;-96
2021/01/15 00:34:47;;;;;;;1.70;1.23;;;;;;;-3.79;93.83;92628.19;5035026;28;20089;-96
2021/01/15 00:37:13;;;;;;;10.02;3.92;;;;;;;-3.70;91.29;92637.41;5065960;23;20046;-94
2021/01/15 00:39:40;;;;;;;3.20;1.88;;;;;;;-3.70;90.74;92665.00;5025808;28;20053;-94
2021/01/15 00:42:10;;;;;;;1.70;1.30;;;;;;;-4.42;90.39;92542.53;5026316;28;20054;-93
2021/01/15 00:44:36;;;;;;;11.32;4.25;;;;;;;-4.44;89.90;92577.00;5026464;28;20064;-94
2021/01/15 00:47:03;;;;;;;6.55;2.53;;;;;;;-3.81;90.20;92667.69;5017698;28;20053;-95
2021/01/15 00:49:29;;;;;;;4.15;1.73;;;;;;;-3.87;90.26;92646.44;5017922;28;20438;-94
2021/01/15 00:51:56;;;;;;;4.40;2.80;;;;;;;-3.86;91.73;92663.06;5013884;28;20096;-94
2021/01/15 00:54:22;;;;;;;3.97;1.52;;;;;;;-3.78;91.16;92665.72;5018810;28;20050;-96
2021/01/15 00:56:49;;;;;;;1.58;1.42;;;;;;;-3.83;91.26;92652.78;5019381;28;20057;-94
2021/01/15 00:59:15;;;;;;;3.75;1.67;;;;;;;-3.67;90.90;92682.31;5014841;28;20050;-95
2021/01/15 01:01:41;;;;;;;1.02;0.70;;;;;;;-4.22;89.59;92611.00;5013498;28;20050;-94
2021/01/15 01:04:08;;;;;;;3.03;1.35;;;;;;;-4.24;89.60;92625.38;5013039;28;20058;-94
2021/01/15 01:06:34;;;;;;;2.30;1.20;;;;;;;-3.76;88.63;92685.63;5013119;28;20567;-94
2021/01/15 01:09:03;;;;;;;;;;;;;;;-3.60;89.69;92679.25;5013578;28;20046;-93
2021/01/15 01:11:31;;;;;;;4.18;1.67;;;;;;;-3.69;90.88;92670.84;5013120;28;19921;-94
2021/01/15 01:13:58;;;;;;;2.28;1.90;;;;;;;-3.42;93.55;92672.59;5013264;28;20085;-93
2021/01/15 01:16:25;;;;;;;6.68;3.17;;;;;;;-3.46;92.85;92653.72;5012874;28;20049;-94
2021/01/15 01:18:52;;;;;;;2.63;1.48;;;;;;;-3.55;90.31;92644.50;5011927;28;20042;-93
2021/01/15 01:21:19;;;;;;;35.72;14.32;;;;;;;-3.28;89.96;92681.38;5013163;28;20522;-93
2021/01/15 01:23:45;;;;;;;5.93;2.10;;;;;;;-3.24;88.93;92679.41;5012044;28;20065;-94
2021/01/15 01:26:13;;;;;;;9.35;4.40;;;;;;;-3.67;86.79;92632.13;5011973;28;20056;-93
2021/01/15 01:28:42;;;;;;;2.70;2.08;;;;;;;-3.58;86.78;92654.78;5013951;28;20057;-94
2021/01/15 01:31:08;;;;;;;0.85;0.75;;;;;;;-3.52;86.20;92667.59;5020328;28;20033;-95
2021/01/15 01:33:34;;;;;;;4.57;3.03;;;;;;;-3.85;85.92;92644.56;5020194;28;20136;-95
2021/01/15 01:36:10;;;;;;;5.63;3.03;;;;;;;-3.57;87.33;92687.31;5016242;28;20057;-95
2021/01/15 01:38:37;;;;;;;1.10;1.00;;;;;;;-3.58;87.88;92693.25;5084330;23;20054;-95
2021/01/15 01:41:04;;;;;;;3.72;2.15;;;;;;;-3.50;87.79;92690.06;5017019;28;20099;-94
2021/01/15 01:43:31;;;;;;;2.17;1.75;;;;;;;-3.83;87.24;92667.03;5016833;28;20642;-94
2021/01/15 01:46:01;;;;;;;2.45;1.98;;;;;;;-3.44;92.02;92702.06;5019617;28;20049;-95
2021/01/15 01:48:28;;;;;;;3.42;1.77;;;;;;;-3.38;92.05;92681.44;5018412;28;20050;-94
2021/01/15 01:50:57;;;;;;;1.45;1.20;;;;;;;-3.29;87.29;92697.38;5016159;28;20045;-95
2021/01/15 01:53:27;;;;;;;0.77;0.70;;;;;;;-4.24;87.08;92587.78;5029452;28;20041;-96
2021/01/15 01:55:54;;;;;;;1.90;1.40;;;;;;;-3.48;89.17;92690.72;5014646;28;20090;-94
2021/01/15 01:58:21;;;;;;;2.13;1.98;;;;;;;-3.34;91.63;92693.72;5019931;28;20050;-94
2021/01/15 02:00:53;;;;;;;2.08;1.10;;;;;;;-3.32;91.50;92687.63;5015352;28;20061;-94
2021/01/15 02:03:19;;;;;;;1.13;0.70;;;;;;;-3.13;90.05;92694.31;5009375;28;20049;-95
2021/01/15 02:05:45;;;;;;;;;;;;;;;-3.25;87.52;92702.91;5017388;28;20049;-94
2021/01/15 02:08:12;;;;;;;1.10;1.00;;;;;;;-3.41;89.35;92685.94;5016451;28;20499;-94
2021/01/15 02:10:44;;;;;;;1.27;1.15;;;;;;;-3.95;91.47;92603.66;5023026;28;20046;-93
2021/01/15 02:13:22;;;;;;;2.55;2.10;;;;;;;-3.39;91.47;92689.91;5018802;28;20046;-93
2021/01/15 02:15:52;;;;;;;1.27;1.05;;;;;;;-3.14;90.06;92699.47;5022080;28;20092;-93
2021/01/15 02:18:27;;;;;;;1.42;1.30;;;;;;;-3.07;90.65;92710.53;5021377;28;20049;-91
2021/01/15 02:21:30;;;;;;;3.15;1.40;;;;;;;-3.19;91.62;92716.66;5030009;28;20030;-94
2021/01/15 02:24:02;;;;;;;2.28;2.05;;;;;;;-3.21;91.13;92714.28;5021148;28;20054;-92
2021/01/15 02:26:58;;;;;;;2.70;2.17;;;;;;;-3.26;92.35;92714.72;5023810;28;20046;-94
2021/01/15 02:29:30;;;;;;;3.42;2.30;;;;;;;-3.57;90.74;92671.47;5024854;28;20054;-93
2021/01/15 02:32:29;;;;;;;2.33;1.98;;;;;;;-3.46;92.02;92695.59;5027605;28;20056;-94
2021/01/15 02:35:19;;;;;;;1.77;1.45;;;;;;;-3.17;91.00;92732.38;5022708;28;20054;-93
2021/01/15 02:38:25;;;;;;;2.20;1.52;;;;;;;-3.19;90.79;92736.75;5022348;28;20062;-93
2021/01/15 02:41:22;;;;;;;1.60;1.40;;;;;;;-3.35;91.57;92728.06;5024006;28;20054;-94
2021/01/15 02:43:55;;;;;;;3.40;1.60;;;;;;;-3.83;92.45;92677.06;5026887;28;20042;-95
2021/01/15 02:46:40;;;;;;;1.98;1.48;;;;;;;-3.32;93.78;92732.03;5020233;28;20049;-94
2021/01/15 02:49:15;;;;;;;1.15;1.08;;;;;;;-4.33;91.41;92609.44;5030921;28;20073;-96
2021/01/15 02:51:48;;;;;;;2.05;1.58;;;;;;;-3.96;92.74;92667.31;5032427;28;20050;-95
2021/01/15 02:54:18;;;;;;;2.03;1.63;;;;;;;-4.39;92.69;92609.16;5033488;28;20038;-95
2021/01/15 02:56:45;;;;;;;10.63;1.85;;;;;;;-3.57;93.39;92734.22;5032417;28;20413;-94
2021/01/15 02:59:11;;;;;;;2.03;1.52;;;;;;;-4.11;94.06;92639.34;5030385;28;20060;-94
2021/01/15 03:01:48;;;;;;;11.68;2.00;;;;;;;-4.01;95.11;92620.06;5015589;28;20057;-93
2021/01/15 03:04:25;;;;;;;1.45;1.17;;;;;;;-3.54;92.00;92693.78;5126288;23;20050;-93
2021/01/15 03:06:57;;;;;;;2.80;1.65;;;;;;;-3.25;94.57;92730.56;5012593;28;20053;-95
2021/01/15 03:09:27;;;;;;;3.58;1.90;;;;;;;-3.33;92.80;92696.09;5011824;28;20092;-94
2021/01/15 03:11:56;;;;;;;4.18;1.90;;;;;;;-3.19;92.57;92740.06;5010955;28;20046;-94
2021/01/15 03:14:23;;;;;;;3.15;2.15;;;;;;;-3.23;92.21;92726.97;5009967;28;20045;-93
2021/01/15 03:16:51;;;;;;;1.42;1.33;;;;;;;-3.30;91.92;92723.44;5011440;28;20072;-95
2021/01/15 03:19:19;;;;;;;2.53;1.23;;;;;;;-4.22;92.03;92621.03;5017097;28;20103;-93
2021/01/15 03:21:50;;;;;;;3.47;2.33;;;;;;;-3.32;93.06;92732.03;5012962;28;20046;-93
2021/01/15 03:24:19;;;;;;;3.15;1.45;;;;;;;-3.70;91.96;92720.22;5020560;28;20063;-95
2021/01/15 03:26:46;;;;;;;0.93;0.68;;;;;;;-3.52;92.26;92740.41;5019025;28;20057;-94
2021/01/15 03:29:14;;;;;;;2.15;1.40;;;;;;;-4.13;92.59;92678.84;5027080;28;20050;-94
2021/01/15 03:31:48;;;;;;;3.67;1.55;;;;;;;-4.50;92.76;92622.66;5019205;28;20073;-96
2021/01/15 03:34:15;;;;;;;2.67;2.00;;;;;;;-4.50;93.30;92617.63;5028960;28;20077;-96
2021/01/15 03:36:42;;;;;;;2.28;2.08;;;;;;;-4.11;93.57;92667.75;5018297;28;20053;-94
2021/01/15 03:39:09;;;;;;;1.48;1.35;;;;;;;-3.68;94.07;92720.09;5011281;28;20729;-94
2021/01/15 03:41:35;;;;;;;2.63;1.95;;;;;;;-3.65;93.75;92735.69;5013417;28;20483;-95
2021/01/15 03:44:01;;;;;;;3.50;2.53;;;;;;;-4.07;93.88;92651.47;5014447;28;20057;-93
2021/01/15 03:46:28;;;;;;;2.38;1.35;;;;;;;-4.17;93.03;92640.69;5017475;28;20060;-95
2021/01/15 03:48:54;;;;;;;5.53;1.13;;;;;;;-3.37;94.29;92738.25;5012294;28;20108;-94
2021/01/15 03:51:21;;;;;;;1.63;1.10;;;;;;;-4.22;92.11;92638.56;5016463;28;20112;-94
2021/01/15 03:53:48;;;;;;;2.22;1.13;;;;;;;-3.54;91.35;92742.28;5012965;28;20137;-93
2021/01/15 03:56:18;;;;;;;1.67;1.42;;;;;;;-3.59;91.13;92749.41;5015146;28;20521;-94
2021/01/15 03:58:44;;;;;;;3.22;1.77;;;;;;;-3.94;92.90;92728.97;5010259;28;20049;-94
2021/01/15 04:01:11;;;;;;;2.50;1.83;;;;;;;-4.34;93.47;92662.22;5010372;28;20049;-93
2021/01/15 04:03:37;;;;;;;5.38;1.88;;;;;;;-3.91;93.73;92722.91;5010447;28;20045;-92
2021/01/15 04:06:04;;;;;;;1.48;1.38;;;;;;;-3.84;94.46;92723.19;4997358;28;20054;-92
2021/01/15 04:08:30;;;;;;;3.10;1.85;;;;;;;-4.12;92.76;92683.69;5010870;28;20041;-93
2021/01/15 04:10:58;;;;;;;3.05;2.50;;;;;;;-3.70;93.13;92734.50;5010841;28;20058;-95
2021/01/15 04:13:24;;;;;;;5.30;3.42;;;;;;;-3.57;92.88;92750.06;5015111;28;20490;-93
2021/01/15 04:15:50;;;;;;;5.95;3.47;;;;;;;-3.73;95.28;92719.72;5012819;28;20050;-95
2021/01/15 04:18:22;;;;;;;2.92;2.38;;;;;;;-3.65;94.02;92717.34;4994564;28;20054;-94
2021/01/15 04:20:48;;;;;;;1.42;1.33;;;;;;;-4.01;92.55;92672.75;5052936;23;20053;-93
2021/01/15 04:23:15;;;;;;;2.15;1.67;;;;;;;-4.60;92.34;92615.91;5025614;28;20045;-93
2021/01/15 04:25:42;;;;;;;5.30;3.08;;;;;;;-4.13;93.06;92691.38;5026773;28;20048;-96
2021/01/15 04:28:27;;;;;;;2.25;1.48;;;;;;;-4.25;92.94;92699.06;5200193;23;20065;-96
2021/01/15 04:31:13;;;;;;;2.08;1.17;;;;;;;-4.65;93.61;92655.63;5133686;23;20046;-96
2021/01/15 04:33:40;;;;;;;1.67;1.23;;;;;;;-3.90;94.66;92757.09;5021540;28;20041;-95
2021/01/15 04:36:15;;;;;;;6.55;2.30;;;;;;;-4.83;94.33;92635.41;5026486;28;20059;-95
2021/01/15 04:38:43;;;;;;;4.10;2.13;;;;;;;-4.52;93.76;92692.16;5012587;28;20046;-93
2021/01/15 04:41:10;;;;;;;4.10;1.73;;;;;;;-4.13;94.38;92769.91;5018826;28;20485;-93
2021/01/15 04:43:40;;;;;;;4.07;2.70;;;;;;;-3.95;94.59;92781.81;5017812;28;20057;-93
2021/01/15 04:46:07;;;;;;;3.22;1.92;;;;;;;-4.06;94.16;92762.66;5000447;28;20081;-95
2021/01/15 04:48:35;;;;;;;5.07;2.70;;;;;;;-4.56;95.10;92679.09;5012244;28;20052;-94
2021/01/15 04:51:03;;;;;;;2.50;1.95;;;;;;;-4.13;93.73;92749.06;5015203;28;20058;-94
2021/01/15 04:53:35;;;;;;;7.60;1.90;;;;;;;-4.15;93.18;92716.59;5015152;28;20054;-95
2021/01/15 04:56:04;;;;;;;5.72;2.85;;;;;;;-3.66;93.08;92789.31;5020320;28;20053;-94
2021/01/15 04:58:34;;;;;;;6.25;4.30;;;;;;;-3.84;94.04;92738.22;5020268;28;20136;-94
2021/01/15 05:01:02;;;;;;;7.75;5.13;;;;;;;-4.16;94.58;92704.97;5016926;28;20050;-95
2021/01/15 05:03:29;;;;;;;5.55;3.83;;;;;;;-4.09;92.31;92717.75;5014453;28;20413;-94
2021/01/15 05:06:00;;;;;;;5.70;3.42;;;;;;;-3.95;93.39;92709.03;5016741;28;20050;-96
2021/01/15 05:08:28;;;;;;;4.43;2.92;;;;;;;-3.67;91.62;92787.75;5015583;28;20045;-96
2021/01/15 05:10:55;;;;;;;4.78;3.17;;;;;;;-3.42;92.92;92802.38;5016180;28;20057;-95
2021/01/15 05:13:22;;;;;;;3.97;2.50;;;;;;;-3.57;94.21;92745.03;5014348;28;20498;-96
2021/01/15 05:15:52;;;;;;;5.35;3.58;;;;;;;-3.69;94.54;92721.03;5018783;28;20054;-96
2021/01/15 05:18:20;;;;;;;2.70;2.38;;;;;;;-3.68;93.51;92708.34;5023121;28;20337;-95
2021/01/15 05:20:47;;;;;;;5.72;3.00;;;;;;;-3.49;90.71;92741.88;5018500;28;20050;-95
2021/01/15 05:23:25;;;;;;;7.20;3.60;;;;;;;-3.32;91.20;92762.97;5024410;28;20057;-96
2021/01/15 05:25:52;;;;;;;4.15;2.47;;;;;;;-3.00;92.52;92807.03;5099724;23;20050;-94
2021/01/15 05:28:19;;;;;;;6.15;2.45;;;;;;;-3.74;92.88;92690.53;5032833;28;20053;-96
2021/01/15 05:31:07;;;;;;;2.67;1.88;;;;;;;-3.47;91.87;92722.44;5033908;28;20084;-95
2021/01/15 05:39:22;;;;;;;3.85;2.85;;;;;;;-3.96;88.47;92698.22;5027139;28;20061;-95
2021/01/15 05:50:04;;;;;;;9.73;5.18;;;;;;;-4.23;89.75;92713.94;5543671;23;20125;-94
2021/01/15 05:52:36;;;;;;;8.88;4.47;;;;;;;-4.09;92.14;92716.06;5033505;28;20029;-95
2021/01/15 06:05:59;;;;;;;2.40;2.00;;;;;;;-3.57;88.30;92742.53;5025033;23;20062;-95
2021/01/15 06:28:09;;;;;;;4.22;1.80;;;;;;;-3.55;91.83;92775.03;5013223;23;20074;-95
2021/01/15 06:30:37;;;;;;;6.18;3.15;;;;;;;-3.69;91.01;92768.72;4994305;28;20038;-94
2021/01/15 06:33:08;;;;;;;3.13;2.28;;;;;;;-3.32;91.59;92814.91;4996166;28;20039;-95
2021/01/15 06:35:36;;;;;;;11.30;3.33;;;;;;;-3.52;90.59;92774.78;4992717;28;20119;-95
2021/01/15 06:38:14;;;;;;;3.83;2.15;;;;;;;-3.59;89.81;92781.25;4994796;28;20066;-95
2021/01/15 06:40:46;;;;;;;4.68;2.88;;;;;;;-2.77;90.96;92884.66;5254173;23;20110;-95
2021/01/15 07:10:22;;;;;;;21.80;7.20;;;;;;;-3.04;91.75;92842.63;5143334;23;20053;-95
2021/01/15 07:13:00;;;;;;;14.93;6.22;;;;;;;-2.93;92.01;92852.53;5033502;28;20230;-95
2021/01/15 07:15:32;;;;;;;17.20;5.78;;;;;;;-2.67;91.18;92879.59;5034841;28;20036;-95
2021/01/15 07:18:31;;;;;;;5.55;3.92;;;;;;;-3.13;91.14;92822.44;5032447;28;20102;-95
2021/01/15 07:21:07;;;;;;;4.75;2.88;;;;;;;-3.09;88.25;92818.69;5099372;23;20045;-95
2021/01/15 07:24:12;;;;;;;5.57;3.20;;;;;;;-2.95;87.89;92832.53;5031939;28;20036;-96
2021/01/15 07:29:19;;;;;;;12.75;4.85;;;;;;;-2.89;89.63;92860.56;5513156;23;20094;-96
2021/01/15 07:31:50;;;;;;;4.95;4.07;;;;;;;-2.67;88.94;92879.59;5008434;28;20102;-95
2021/01/15 07:34:18;;;;;;;2.75;2.25;;;;;;;-2.82;85.23;92859.13;5005616;28;20106;-95
2021/01/15 07:36:48;;;;;;;5.93;4.65;;;;;;;-2.39;87.31;92931.63;5008172;28;20263;-95
2021/01/15 07:39:18;;;;;;;8.10;5.85;;;;;;;-2.38;88.69;92923.97;5009222;28;20050;-95
2021/01/15 07:50:12;;;;;;;4.18;2.00;;;;;;;-1.69;85.77;92970.69;5015796;23;20153;-95
2021/01/15 07:53:01;;;;;;;5.40;2.30;;;;;;;-1.78;83.70;92979.88;5004255;28;20054;-96
2021/01/15 07:55:42;;;;;;;6.25;1.83;;;;;;;-1.95;84.70;92984.72;4991907;28;20046;-95
2021/01/15 07:58:09;;;;;;;3.33;2.17;;;;;;;-2.04;84.71;92988.09;4990924;28;20057;-93
2021/01/15 08:00:37;;;;;;;3.10;2.15;;;;;;;-2.09;85.80;92992.72;4992983;28;20058;-96
2021/01/15 08:03:04;;;;;;;4.95;2.80;;;;;;;-2.05;85.80;92989.78;4993857;28;20521;-94
2021/01/15 08:05:30;;;;;;;4.25;2.88;;;;;;;-2.57;86.00;92905.50;4992478;28;20057;-93
2021/01/15 08:08:08;;;;;;;3.08;2.38;;;;;;;-1.85;86.78;92978.84;4991499;28;20054;-96
2021/01/15 08:10:44;;;;;;;5.32;3.28;;;;;;;-1.76;85.14;92980.53;4993476;28;20050;-94
2021/01/15 08:13:23;;;;;;;6.32;4.10;;;;;;;-1.79;85.40;92969.03;4990789;28;20058;-93
2021/01/15 08:15:51;;;;;;;4.38;3.13;;;;;;;-1.84;83.94;92993.81;4990583;28;20059;-93
2021/01/15 08:18:18;;;;;;;2.50;2.13;;;;;;;-2.15;84.09;92953.81;4991651;28;20047;-94
2021/01/15 08:20:49;;;;;;;2.60;1.75;;;;;;;-2.03;85.32;93000.50;4991883;28;20069;-95
2021/01/15 08:23:23;;;;;;;4.88;2.53;;;;;;;-1.86;85.96;92992.38;4994114;28;20101;-94
2021/01/15 08:25:54;;;;;;;10.15;3.72;;;;;;;-1.73;85.44;92995.34;4991696;28;20117;-95
2021/01/15 08:28:21;;;;;;;2.13;1.92;;;;;;;-2.36;83.93;92956.53;4991328;28;20062;-94
2021/01/15 08:30:59;;;;;;;2.92;2.50;;;;;;;-2.30;85.06;92999.53;4994467;28;20529;-96
2021/01/15 08:33:26;;;;;;;3.65;2.03;;;;;;;-2.63;85.96;92989.03;4994231;28;20150;-94
2021/01/15 08:35:54;;;;;;;3.78;1.80;;;;;;;-2.61;87.37;93001.44;4994677;28;20054;-92
2021/01/15 08:38:36;;;;;;;2.25;1.67;;;;;;;-2.75;86.26;92988.38;4994504;28;21174;-94
2021/01/15 08:41:13;;;;;;;2.22;1.85;;;;;;;-2.36;87.67;93011.88;4991615;28;20050;-94
2021/01/15 08:43:40;;;;;;;3.20;1.88;;;;;;;-2.33;85.30;92993.97;4993788;28;20057;-92
2021/01/15 08:46:13;;;;;;;9.07;3.90;;;;;;;-1.95;86.20;93006.59;4993832;28;20050;-94
2021/01/15 08:48:40;;;;;;;3.80;2.50;;;;;;;-1.81;84.72;93008.63;4993870;28;20050;-91
2021/01/15 08:51:08;;;;;;;11.18;6.20;;;;;;;-1.91;83.48;93011.22;4993819;28;20054;-94
2021/01/15 08:53:43;;;;;;;8.05;3.10;;;;;;;-2.27;84.30;93013.56;4993646;28;20047;-93
2021/01/15 08:56:12;;;;;;;5.72;3.28;;;;;;;-2.48;82.89;92986.88;4993550;28;20086;-92
2021/01/15 08:58:47;;;;;;;5.90;2.53;;;;;;;-2.50;84.24;92991.22;4993555;28;20063;-92
2021/01/15 09:01:26;;;;;;;5.90;2.95;;;;;;;-2.06;82.46;93000.00;4993521;28;20507;-91
2021/01/15 09:03:57;;;;;;;1.52;1.42;;;;;;;-1.88;82.23;92995.84;4993304;28;20050;-91
2021/01/15 09:06:24;;;;;;;2.22;1.55;;;;;;;-1.58;82.94;92990.63;4993350;28;20546;-92
2021/01/15 09:08:54;;;;;;;6.57;4.43;;;;;;;-1.40;79.91;92994.91;4983374;28;20453;-91
2021/01/15 09:11:25;;;;;;;2.75;2.25;;;;;;;-1.06;82.43;92994.31;4993519;28;20474;-90
2021/01/15 09:13:53;;;;;;;3.17;1.98;;;;;;;-0.79;77.67;92990.09;4993167;28;20050;-91
2021/01/15 09:16:21;;;;;;;4.45;1.88;;;;;;;-1.22;75.33;92979.81;4993258;28;20457;-90
2021/01/15 09:18:49;;;;;;;2.90;1.42;;;;;;;-0.83;78.38;92983.78;4993038;28;20050;-91
2021/01/15 09:21:15;;;;;;;2.38;2.17;;;;;;;-0.54;78.78;92978.47;4993187;28;21290;-91
2021/01/15 09:23:42;;;;;;;;;;;;;;;-0.42;74.81;92985.78;4993685;28;20553;-90
2021/01/15 09:26:09;;;;;;;1.85;1.58;;;;;;;-0.82;74.48;92960.91;4993114;28;19922;-90
2021/01/15 09:28:35;;;;;;;5.20;2.60;;;;;;;-0.69;76.00;92975.69;4992911;28;20528;-91
2021/01/15 09:31:02;;;;;;;2.28;1.85;;;;;;;-0.65;74.18;92983.75;4992968;28;20492;-92
2021/01/15 09:33:29;;;;;;;3.50;2.22;;;;;;;-1.50;73.89;92975.63;4993306;28;20117;-90
2021/01/15 09:35:57;;;;;;;4.63;2.03;;;;;;;-1.49;77.12;92972.16;4993177;28;20050;-92
2021/01/15 09:38:23;;;;;;;13.48;5.93;;;;;;;-1.78;76.58;92952.97;4992949;28;20050;-91
2021/01/15 09:40:49;;;;;;;;;;;;;;;-1.75;78.05;92969.53;4992493;28;20082;-92
2021/01/15 09:43:18;;;;;;;1.15;1.00;;;;;;;-1.78;76.83;92968.09;4992867;28;20238;-92
2021/01/15 09:45:45;;;;;;;2.42;1.63;;;;;;;-1.71;79.76;92959.97;4992546;28;20092;-92
2021/01/15 09:48:12;;;;;;;4.32;2.17;;;;;;;-1.90;76.09;92941.53;4993188;28;20143;-91
2021/01/15 09:50:41;;;;;;;4.88;2.42;;;;;;;-2.06;75.95;92952.16;4992529;28;20050;-91
2021/01/15 09:53:08;;;;;;;4.43;2.90;;;;;;;-2.37;79.50;92957.47;4992718;28;20053;-93
2021/01/15 09:55:34;;;;;;;2.50;2.17;;;;;;;-2.18;77.99;92959.91;4992509;28;20049;-93
2021/01/15 09:58:00;;;;;;;;;;;;;;;-2.23;76.90;92957.00;4993111;28;20051;-94
2021/01/15 10:00:27;;;;;;;1.00;0.90;;;;;;;-2.35;77.28;92925.41;4992340;28;19925;-92
2021/01/15 10:02:53;;;;;;;4.07;2.70;;;;;;;-2.20;76.77;92949.19;4992507;28;20450;-91
2021/01/15 10:05:20;;;;;;;4.00;2.05;;;;;;;-1.96;80.23;92939.53;4992362;28;20137;-92
2021/01/15 10:07:46;;;;;;;2.78;2.15;;;;;;;-1.42;78.98;92932.09;4992317;28;20111;-92
2021/01/15 10:10:14;;;;;;;;;;;;;;;-0.75;78.07;92927.56;4992764;28;20108;-91
2021/01/15 10:12:45;;;;;;;2.45;2.10;;;;;;;-0.22;75.73;92912.41;4992583;28;20267;-90
2021/01/15 10:15:13;;;;;;;3.28;1.85;;;;;;;-0.20;71.80;92921.41;4992112;28;20702;-89
2021/01/15 10:17:43;;;;;;;4.07;2.10;;;;;;;-0.31;75.38;92924.19;4992475;28;20050;-88
2021/01/15 10:20:11;;;;;;;2.72;1.55;;;;;;;-0.31;73.00;92935.09;4992004;28;20057;-89
2021/01/15 10:22:37;;;;;;;5.10;2.30;;;;;;;-0.31;72.55;92931.75;4992142;28;20054;-91
2021/01/15 10:25:04;;;;;;;;;;;;;;;-0.25;73.34;92923.59;4992407;28;20058;-90
2021/01/15 10:27:31;;;;;;;2.30;1.20;;;;;;;-0.34;72.09;92922.75;4991692;28;20345;-91
2021/01/15 10:29:57;;;;;;;3.28;1.98;;;;;;;-0.32;73.72;92930.19;4991988;28;20046;-90
2021/01/15 10:32:23;;;;;;;;;;;;;;;-0.27;74.72;92917.91;4992309;28;20043;-90
2021/01/15 10:34:49;;;;;;;4.65;2.38;;;;;;;-0.15;75.61;92913.38;4991613;28;19925;-90
2021/01/15 10:37:15;;;;;;;;;;;;;;;-0.65;71.28;92907.28;4992229;28;20046;-91
2021/01/15 10:39:43;;;;;;;2.28;1.42;;;;;;;-0.72;73.53;92902.84;4992095;28;19929;-91
2021/01/15 10:42:16;;;;;;;6.47;2.03;;;;;;;-0.99;74.65;92879.34;4991690;28;20051;-90
2021/01/15 10:45:13;;;;;;;1.02;0.88;;;;;;;-1.48;73.64;92819.31;4991561;28;20419;-92
2021/01/15 10:47:48;;;;;;;4.15;1.55;;;;;;;-1.12;74.51;92894.84;4989246;28;20132;-91
2021/01/15 10:50:16;;;;;;;3.42;2.33;;;;;;;-1.15;75.61;92874.97;4991319;28;20090;-90
2021/01/15 10:53:03;;;;;;;1.52;1.25;;;;;;;-0.99;72.74;92886.91;4991503;28;20053;-93
2021/01/15 10:56:00;;;;;;;3.60;2.10;;;;;;;-1.05;74.25;92859.75;4991678;28;20050;-91
2021/01/15 10:58:43;;;;;;;5.93;3.03;;;;;;;-1.17;72.46;92848.34;4990603;28;20402;-94
2021/01/15 11:08:11;;;;;;;4.45;1.88;;;;;;;-1.25;75.83;92880.09;4847671;29;20078;-92
2021/01/15 11:10:40;;;;;;;3.20;1.65;;;;;;;-1.75;76.10;92780.69;4901589;29;20477;-92
2021/01/15 11:13:07;;;;;;;3.30;2.25;;;;;;;-1.21;73.85;92850.34;4949869;28;20041;-91
2021/01/15 11:18:36;;;;;;;3.05;1.50;;;;;;;-1.10;72.77;92864.44;4962117;28;20525;-91
2021/01/15 11:21:25;;;;;;;2.70;1.23;;;;;;;-1.57;70.78;92832.75;4999778;28;20057;-95
2021/01/15 11:23:57;;;;;;;2.72;1.58;;;;;;;-1.52;74.71;92840.66;4994810;28;20097;-91
2021/01/15 11:26:45;;;;;;;;;;;;;;;;;;;;;
2021/01/15 11:29:22;;;;;;;3.45;2.10;;;;;;;-1.17;74.23;92834.00;4992869;28;20061;-90
2021/01/15 11:32:03;;;;;;;8.40;4.68;;;;;;;-0.84;74.67;92840.97;4999556;28;20054;-90
2021/01/15 11:34:29;;;;;;;3.30;1.90;;;;;;;-0.41;72.86;92838.50;4999057;28;20061;-88
2021/01/15 11:36:55;;;;;;;;;;;;;;;-0.08;71.84;92843.66;5001620;28;20426;-90
2021/01/15 11:39:22;;;;;;;6.88;3.25;;;;;;;0.19;69.91;92836.00;5000134;28;19929;-89
2021/01/15 11:41:52;;;;;;;3.30;2.40;;;;;;;0.38;71.29;92842.50;4998204;28;20498;-88
2021/01/15 11:44:18;;;;;;;5.05;1.48;;;;;;;0.37;68.13;92838.38;5001764;28;20085;-89
2021/01/15 11:46:45;;;;;;;1.63;1.30;;;;;;;0.37;65.57;92845.97;5000241;28;20074;-88
2021/01/15 11:49:11;;;;;;;3.80;2.45;;;;;;;0.34;67.51;92846.28;4993617;28;20503;-90
2021/01/15 11:51:37;;;;;;;;;;;;;;;0.14;68.68;92839.00;4991364;28;20046;-90
2021/01/15 11:54:12;;;;;;;4.80;1.95;;;;;;;-0.26;67.02;92821.03;4990570;28;19933;-91
2021/01/15 11:56:40;;;;;;;3.42;1.48;;;;;;;-0.47;66.94;92839.13;4990465;28;20498;-90
2021/01/15 11:59:06;;;;;;;2.95;1.90;;;;;;;-0.63;70.35;92807.81;5002017;28;20160;-91
2021/01/15 12:01:35;;;;;;;2.15;1.20;;;;;;;-0.76;71.06;92830.94;5009960;28;20050;-92
2021/01/15 12:04:06;;;;;;;2.58;1.40;;;;;;;-1.77;69.42;92778.31;5011962;28;20100;-93
2021/01/15 12:06:40;;;;;;;3.22;1.80;;;;;;;-1.23;71.54;92832.88;5014092;28;20493;-90
2021/01/15 12:09:11;;;;;;;12.10;6.22;;;;;;;-1.62;71.94;92790.38;4997538;28;20046;-93
2021/01/15 12:12:05;;;;;;;;;;;;;;;;;;;;;
2021/01/15 12:14:49;;;;;;;2.80;2.35;;;;;;;-2.42;75.48;92722.22;4991321;28;20054;-91
2021/01/15 12:17:17;;;;;;;4.10;1.77;;;;;;;-1.89;73.53;92828.06;5009188;28;20080;-92
2021/01/15 12:19:49;;;;;;;2.97;1.88;;;;;;;-2.10;73.22;92784.75;5014188;28;20068;-92
2021/01/15 12:22:28;;;;;;;;;;;;;;;;;;;;;
2021/01/15 12:31:37;;;;;;;;;;;;;;;;;;;;;
2021/01/15 12:34:36;;;;;;;;;;;;;;;;;;;;;
2021/01/15 12:37:06;;;;;;;3.67;1.77;;;;;;;-1.63;73.91;92826.56;4997632;28;20514;-93
2021/01/15 12:39:36;;;;;;;23.58;7.63;;;;;;;-1.81;74.83;92821.53;5002912;28;20065;-91
2021/01/15 12:42:16;;;;;;;;;;;;;;;;;;;;;
2021/01/15 12:45:01;;;;;;;3.80;2.38;;;;;;;-1.93;76.40;92768.91;4998387;28;20045;-92
2021/01/15 12:47:32;;;;;;;6.70;3.25;;;;;;;-1.39;76.46;92805.81;5011922;28;20504;-94
2021/01/15 12:50:07;;;;;;;13.57;8.00;;;;;;;-1.40;74.55;92828.63;5013532;28;20140;-91
2021/01/15 12:52:33;;;;;;;10.23;5.70;;;;;;;-1.45;75.14;92824.03;5000634;28;20050;-91
2021/01/15 12:54:59;;;;;;;4.82;2.60;;;;;;;-1.72;75.94;92764.50;5007178;28;20046;-91
2021/01/15 12:57:32;;;;;;;8.98;4.90;;;;;;;-1.08;75.51;92829.78;4998640;28;20042;-91
2021/01/15 13:00:11;;;;;;;6.07;3.55;;;;;;;-1.78;75.53;92776.72;4993078;28;20455;-92
2021/01/15 13:02:41;;;;;;;8.63;4.72;;;;;;;-1.60;74.57;92833.84;4993538;28;20050;-91
2021/01/15 13:05:08;;;;;;;29.75;12.63;;;;;;;-1.81;76.83;92824.06;4998114;28;20417;-91
2021/01/15 13:07:36;;;;;;;6.63;4.72;;;;;;;-1.85;76.44;92800.88;5011615;28;20053;-91
2021/01/15 13:10:17;;;;;;;10.57;6.10;;;;;;;-2.48;74.80;92744.63;5002756;28;20046;-93
2021/01/15 13:12:43;;;;;;;7.35;3.78;;;;;;;-2.46;77.04;92771.22;5002926;28;20050;-91
2021/01/15 13:15:15;;;;;;;6.07;4.07;;;;;;;-1.76;75.55;92842.81;5011727;28;20129;-92
2021/01/15 13:17:49;;;;;;;15.07;7.28;;;;;;;-2.00;76.06;92795.56;5012960;28;20460;-92
2021/01/15 13:20:22;;;;;;;8.25;3.85;;;;;;;-1.82;77.18;92824.97;5012427;28;20046;-92
2021/01/15 13:22:57;;;;;;;8.75;4.75;;;;;;;-1.85;73.91;92832.84;5012946;28;20054;-92
2021/01/15 13:25:28;;;;;;;9.82;5.85;;;;;;;-1.85;75.75;92833.59;5012859;28;20053;-91
2021/01/15 13:27:55;;;;;;;6.35;3.90;;;;;;;-1.68;74.90;92844.63;5012519;28;20517;-90
2021/01/15 13:30:22;;;;;;;6.65;3.70;;;;;;;-1.56;76.11;92847.72;5012654;28;20054;-91
2021/01/15 13:32:49;;;;;;;10.43;3.35;;;;;;;-1.34;74.11;92843.19;5012348;28;20052;-91
2021/01/15 13:35:15;;;;;;;1.52;1.15;;;;;;;-1.31;72.08;92854.69;5012599;28;20452;-91
2021/01/15 13:37:42;;;;;;;3.10;1.83;;;;;;;-1.12;72.35;92846.16;5012637;28;20543;-91
2021/01/15 13:40:10;;;;;;;4.95;2.83;;;;;;;-1.15;72.06;92804.38;5012312;28;20061;-90